Time;durP1;ratioP1;P1;durP2;ratioP2;P2;SDS_P1;SDS_P2;PMS_P1;PMS_P2;Temp;Humidity;BMP_temperature;BMP_pressure;BME280_temperature;BME280_humidity;BME280_pressure;Samples;Min_cycle;Max_cycle;Signal;HPM_P1;HPM_P2
2020/12/22 00:00:20;;;;;;;3.45;1.52;;;12.40;79.60;;;;;;5124246;28;20026;-44
2020/12/22 00:02:47;;;;;;;2.05;1.75;;;12.40;79.50;;;;;;5124581;28;20034;-44
2020/12/22 00:05:13;;;;;;;2.95;1.70;;;12.40;79.60;;;;;;5124424;28;20466;-44
2020/12/22 00:07:40;;;;;;;1.90;1.60;;;12.30;79.50;;;;;;5107385;28;20098;-44
2020/12/22 00:10:07;;;;;;;1.70;1.55;;;12.30;79.50;;;;;;5103644;28;20035;-44
2020/12/22 00:12:33;;;;;;;;;;;12.30;79.50;;;;;;5085910;28;20040;-44
2020/12/22 00:15:00;;;;;;;3.40;1.80;;;12.30;79.60;;;;;;5103802;28;19904;-44
2020/12/22 00:17:26;;;;;;;1.50;1.40;;;12.30;79.60;;;;;;5103929;28;20035;-45
2020/12/22 00:19:52;;;;;;;1.98;1.73;;;12.30;79.60;;;;;;5123941;27;20126;-44
2020/12/22 00:22:19;;;;;;;2.72;1.60;;;12.30;79.50;;;;;;5143991;28;20112;-44
2020/12/22 00:24:45;;;;;;;2.05;1.80;;;12.30;79.60;;;;;;5143779;28;20109;-44
2020/12/22 00:27:11;;;;;;;2.25;1.70;;;12.30;79.60;;;;;;5144056;28;20027;-44
2020/12/22 00:29:37;;;;;;;2.63;1.60;;;12.30;79.60;;;;;;5143412;28;20031;-45
2020/12/22 00:32:03;;;;;;;3.35;1.90;;;12.30;79.60;;;;;;5141437;28;20103;-45
2020/12/22 00:34:30;;;;;;;1.80;1.60;;;12.30;79.60;;;;;;5123109;28;20035;-44
2020/12/22 00:36:56;;;;;;;2.88;1.88;;;12.30;79.50;;;;;;5104906;28;20050;-43
2020/12/22 00:39:23;;;;;;;2.70;1.88;;;12.20;79.40;;;;;;5122793;28;20062;-44
2020/12/22 00:41:53;;;;;;;1.60;1.48;;;12.20;79.40;;;;;;5130171;28;20083;-44
2020/12/22 00:44:20;;;;;;;2.63;1.40;;;12.20;79.50;;;;;;5143514;28;20016;-44
2020/12/22 00:46:46;;;;;;;2.58;1.67;;;12.20;79.40;;;;;;5143705;28;20030;-44
2020/12/22 00:49:12;;;;;;;1.77;1.65;;;12.20;79.50;;;;;;5138680;28;20032;-44
2020/12/22 00:51:38;;;;;;;1.80;1.63;;;12.20;79.40;;;;;;5122468;28;20023;-44
2020/12/22 00:54:05;;;;;;;2.15;1.75;;;12.20;79.20;;;;;;5122745;28;20110;-45
2020/12/22 00:56:31;;;;;;;1.77;1.45;;;12.20;79.40;;;;;;5140692;28;20023;-45
2020/12/22 00:58:57;;;;;;;2.38;1.75;;;12.10;79.00;;;;;;5143216;28;20038;-45
2020/12/22 01:01:23;;;;;;;1.75;1.52;;;12.10;79.10;;;;;;5143223;28;20044;-44
2020/12/22 01:03:49;;;;;;;3.22;1.63;;;12.10;79.00;;;;;;5125527;28;20102;-45
2020/12/22 01:06:16;;;;;;;2.53;1.80;;;12.10;79.10;;;;;;5122747;28;20447;-44
2020/12/22 01:08:43;;;;;;;1.90;1.60;;;12.10;79.30;;;;;;5104551;28;20541;-44
2020/12/22 01:11:09;;;;;;;2.03;1.80;;;12.10;79.60;;;;;;5122139;28;20028;-45
2020/12/22 01:13:35;;;;;;;2.35;1.73;;;12.10;79.30;;;;;;5122457;28;20031;-45
2020/12/22 01:16:01;;;;;;;2.10;1.70;;;12.00;79.70;;;;;;5122676;28;20016;-44
2020/12/22 01:18:27;;;;;;;2.00;1.60;;;12.00;79.10;;;;;;5122633;28;20038;-44
2020/12/22 01:20:55;;;;;;;1.57;1.47;;;12.00;79.10;;;;;;5083586;28;1634988;-44
2020/12/22 01:23:21;;;;;;;;;;;12.00;78.90;;;;;;5144360;28;20035;-44
2020/12/22 01:25:47;;;;;;;2.22;1.70;;;12.00;79.10;;;;;;5142225;28;19907;-44
2020/12/22 01:28:13;;;;;;;2.03;1.50;;;12.00;79.00;;;;;;5143883;28;20026;-45
2020/12/22 01:30:39;;;;;;;1.60;1.42;;;11.90;79.00;;;;;;5143484;28;20045;-44
2020/12/22 01:33:05;;;;;;;3.03;1.73;;;11.90;79.20;;;;;;5132293;28;20070;-44
2020/12/22 01:35:32;;;;;;;2.42;1.98;;;11.90;79.20;;;;;;5122962;28;20031;-44
2020/12/22 01:37:58;;;;;;;2.40;1.88;;;11.90;79.10;;;;;;5104842;28;20115;-44
2020/12/22 01:40:24;;;;;;;2.00;1.77;;;11.90;79.20;;;;;;5122933;28;20019;-44
2020/12/22 01:42:50;;;;;;;2.05;1.40;;;11.90;79.20;;;;;;5123168;28;20027;-44
2020/12/22 01:45:16;;;;;;;2.33;1.60;;;11.90;79.20;;;;;;5123167;28;20024;-44
2020/12/22 01:47:47;;;;;;;2.58;1.88;;;11.80;79.00;;;;;;5104793;28;20035;-44
2020/12/22 01:50:15;;;;;;;2.67;1.73;;;11.80;79.20;;;;;;5135947;28;20073;-44
2020/12/22 01:52:41;;;;;;;2.05;1.70;;;11.80;79.20;;;;;;5143516;28;20503;-45
2020/12/22 01:55:07;;;;;;;3.13;1.50;;;11.80;79.00;;;;;;5125228;28;20039;-44
2020/12/22 01:57:33;;;;;;;2.03;1.77;;;11.80;78.90;;;;;;5143546;28;20030;-44
2020/12/22 02:00:00;;;;;;;2.27;1.50;;;11.80;78.90;;;;;;5125353;28;20027;-44
2020/12/22 02:02:26;;;;;;;2.65;1.60;;;11.80;78.90;;;;;;5137652;28;20055;-44
2020/12/22 02:04:53;;;;;;;1.83;1.70;;;11.80;78.90;;;;;;5122940;28;20480;-44
2020/12/22 02:07:19;;;;;;;2.17;1.73;;;11.80;78.80;;;;;;5108416;28;20028;-45
2020/12/22 02:09:49;;;;;;;2.15;1.70;;;11.70;78.90;;;;;;5102617;28;20032;-45
2020/12/22 02:12:17;;;;;;;1.80;1.60;;;11.70;78.90;;;;;;5102169;28;20024;-44
2020/12/22 02:14:43;;;;;;;2.13;1.90;;;11.70;78.80;;;;;;5102731;28;20028;-44
2020/12/22 02:17:10;;;;;;;2.50;1.58;;;11.70;78.80;;;;;;5106207;28;20020;-44
2020/12/22 02:19:36;;;;;;;2.07;1.70;;;11.70;78.80;;;;;;5095496;28;20035;-44
2020/12/22 02:22:06;;;;;;;1.83;1.60;;;11.70;78.80;;;;;;5126274;28;20046;-44
2020/12/22 02:24:36;;;;;;;2.20;1.63;;;11.70;78.80;;;;;;5126405;28;20035;-44
2020/12/22 02:27:03;;;;;;;1.75;1.52;;;11.70;78.80;;;;;;5126479;28;20027;-44
2020/12/22 02:29:29;;;;;;;2.13;1.90;;;11.60;78.80;;;;;;5107867;28;20031;-45
2020/12/22 02:31:57;;;;;;;2.22;1.75;;;11.60;78.80;;;;;;5127232;27;20036;-44
2020/12/22 02:34:23;;;;;;;1.80;1.58;;;11.60;78.80;;;;;;5128546;27;20024;-44
2020/12/22 02:36:49;;;;;;;2.33;1.80;;;11.60;78.70;;;;;;5136611;27;20067;-45
2020/12/22 02:39:15;;;;;;;2.22;1.63;;;11.60;78.70;;;;;;5141379;27;20027;-44
2020/12/22 02:41:41;;;;;;;2.10;1.80;;;11.60;78.70;;;;;;5138470;27;20019;-44
2020/12/22 02:44:07;;;;;;;1.90;1.70;;;11.60;78.80;;;;;;5125890;28;20115;-44
2020/12/22 02:46:34;;;;;;;1.90;1.60;;;11.60;78.70;;;;;;5125943;28;20600;-44
2020/12/22 02:49:01;;;;;;;2.13;1.65;;;11.60;78.80;;;;;;5128980;27;20027;-45
2020/12/22 02:51:30;;;;;;;;;;;11.50;78.80;;;;;;5146485;27;20057;-44
2020/12/22 02:53:57;;;;;;;1.70;1.60;;;11.50;78.80;;;;;;5143145;27;19911;-45
2020/12/22 02:56:23;;;;;;;2.08;1.50;;;11.50;78.80;;;;;;5146251;27;20015;-44
2020/12/22 02:58:51;;;;;;;2.60;1.88;;;11.50;78.80;;;;;;5146163;27;20031;-44
2020/12/22 03:01:18;;;;;;;1.75;1.38;;;11.50;78.80;;;;;;5146059;27;20531;-44
2020/12/22 03:03:44;;;;;;;1.80;1.70;;;11.50;78.80;;;;;;5129514;27;20023;-44
2020/12/22 03:06:11;;;;;;;1.48;1.33;;;11.50;78.80;;;;;;5120965;28;20028;-44
2020/12/22 03:08:37;;;;;;;2.40;1.88;;;11.50;78.80;;;;;;5105068;28;20032;-45
2020/12/22 03:11:03;;;;;;;1.65;1.55;;;11.40;78.70;;;;;;5105095;28;20028;-45
2020/12/22 03:13:29;;;;;;;2.00;1.80;;;11.40;78.70;;;;;;5104692;28;20115;-44
2020/12/22 03:15:56;;;;;;;2.00;1.80;;;11.40;78.70;;;;;;5105022;28;20020;-44
2020/12/22 03:18:22;;;;;;;2.20;2.00;;;11.40;78.70;;;;;;5104679;28;20024;-44
2020/12/22 03:20:48;;;;;;;1.77;1.67;;;11.40;78.80;;;;;;5140980;27;20087;-45
2020/12/22 03:23:14;;;;;;;1.77;1.60;;;11.40;78.70;;;;;;5145607;27;20022;-44
2020/12/22 03:25:40;;;;;;;2.10;1.80;;;11.40;78.80;;;;;;5145728;27;20023;-45
2020/12/22 03:28:06;;;;;;;2.60;1.85;;;11.30;78.70;;;;;;5142891;27;20030;-44
2020/12/22 03:30:32;;;;;;;2.30;1.83;;;11.30;78.80;;;;;;5125023;28;20028;-44
2020/12/22 03:32:58;;;;;;;2.95;1.67;;;11.30;78.80;;;;;;5134830;27;20046;-45
2020/12/22 03:35:25;;;;;;;2.33;1.70;;;11.30;78.80;;;;;;5145282;27;20102;-44
2020/12/22 03:37:51;;;;;;;1.88;1.70;;;11.30;78.70;;;;;;5126488;27;20049;-45
2020/12/22 03:40:20;;;;;;;3.00;1.75;;;11.30;78.80;;;;;;5125024;28;20020;-44
2020/12/22 03:42:46;;;;;;;2.17;1.75;;;11.30;78.70;;;;;;5124650;28;20044;-45
2020/12/22 03:45:12;;;;;;;3.08;2.03;;;11.30;78.70;;;;;;5124857;28;20031;-44
2020/12/22 03:47:38;;;;;;;3.63;1.95;;;11.30;78.70;;;;;;5124517;28;20023;-44
2020/12/22 03:50:05;;;;;;;2.20;1.77;;;11.30;78.70;;;;;;5136496;27;20051;-44
2020/12/22 03:52:31;;;;;;;2.70;1.80;;;11.30;78.70;;;;;;5124317;28;20069;-45
2020/12/22 03:54:57;;;;;;;2.60;2.17;;;11.30;78.70;;;;;;5124726;28;20028;-44
2020/12/22 03:57:23;;;;;;;1.92;1.73;;;11.20;78.60;;;;;;5124447;28;20041;-44
2020/12/22 03:59:49;;;;;;;2.45;1.75;;;11.20;78.60;;;;;;5124343;28;20046;-45
2020/12/22 04:02:15;;;;;;;2.00;1.67;;;11.20;78.60;;;;;;5124213;28;20083;-44
2020/12/22 04:04:42;;;;;;;2.22;1.70;;;11.20;78.70;;;;;;5124451;28;20024;-44
2020/12/22 04:07:08;;;;;;;2.38;1.90;;;11.20;78.60;;;;;;5111710;28;20503;-44
2020/12/22 04:09:34;;;;;;;2.50;2.10;;;11.20;78.80;;;;;;5103762;28;20100;-44
2020/12/22 04:12:00;;;;;;;1.92;1.73;;;11.20;78.60;;;;;;5103765;28;20032;-44
2020/12/22 04:14:26;;;;;;;2.00;1.70;;;11.20;78.70;;;;;;5103574;28;20063;-44
2020/12/22 04:16:52;;;;;;;1.58;1.48;;;11.20;78.70;;;;;;5103708;28;20020;-44
2020/12/22 04:19:19;;;;;;;1.85;1.63;;;11.20;78.70;;;;;;5114853;27;20161;-44
2020/12/22 04:21:46;;;;;;;2.50;2.00;;;11.20;78.70;;;;;;5144513;27;20027;-44
2020/12/22 04:24:12;;;;;;;2.22;1.80;;;11.20;78.80;;;;;;5125947;27;20051;-44
2020/12/22 04:26:38;;;;;;;2.13;1.65;;;11.10;78.70;;;;;;5144596;27;20023;-44
2020/12/22 04:29:04;;;;;;;2.00;1.80;;;11.10;78.70;;;;;;5144521;27;20034;-44
2020/12/22 04:31:31;;;;;;;2.47;1.75;;;11.20;78.70;;;;;;5144344;27;20108;-44
2020/12/22 04:33:57;;;;;;;1.90;1.70;;;11.10;78.80;;;;;;5124547;27;20106;-45
2020/12/22 04:36:24;;;;;;;1.88;1.70;;;11.10;78.70;;;;;;5137431;27;20113;-44
2020/12/22 04:38:50;;;;;;;2.10;1.90;;;11.10;78.80;;;;;;5123542;28;20027;-44
2020/12/22 04:41:18;;;;;;;2.40;1.77;;;11.10;78.70;;;;;;5123854;28;20038;-45
2020/12/22 04:43:44;;;;;;;;;;;11.10;78.70;;;;;;5122768;28;20472;-44
2020/12/22 04:46:10;;;;;;;2.22;1.77;;;11.10;78.60;;;;;;5139113;27;19903;-44
2020/12/22 04:48:40;;;;;;;2.10;1.58;;;11.10;78.90;;;;;;5105460;28;20177;-44
2020/12/22 04:51:10;;;;;;;3.03;1.77;;;11.00;78.60;;;;;;5120591;28;20020;-44
2020/12/22 04:53:36;;;;;;;2.10;1.90;;;11.00;78.80;;;;;;5123472;28;20035;-44
2020/12/22 04:56:04;;;;;;;1.93;1.70;;;11.00;78.70;;;;;;5123346;28;20023;-44
2020/12/22 04:58:30;;;;;;;1.85;1.63;;;11.00;78.70;;;;;;5123349;28;20106;-44
2020/12/22 05:00:57;;;;;;;2.45;2.15;;;11.00;78.70;;;;;;5127091;27;20071;-44
2020/12/22 05:03:23;;;;;;;;;;;11.00;78.70;;;;;;5130919;28;20054;-44
2020/12/22 05:05:50;;;;;;;2.42;1.90;;;11.00;78.70;;;;;;5121589;28;19904;-44
2020/12/22 05:08:16;;;;;;;2.23;2.00;;;11.00;78.80;;;;;;5103053;28;20023;-44
2020/12/22 05:10:43;;;;;;;1.57;1.47;;;11.00;78.70;;;;;;5103047;28;20268;-44
2020/12/22 05:13:10;;;;;;;1.55;1.45;;;11.00;78.70;;;;;;5102815;28;20119;-44
2020/12/22 05:15:39;;;;;;;2.22;1.80;;;11.00;78.80;;;;;;5084559;28;20043;-44
2020/12/22 05:18:07;;;;;;;1.92;1.58;;;11.00;78.80;;;;;;5103029;28;20032;-45
2020/12/22 05:20:33;;;;;;;2.25;1.95;;;10.90;78.60;;;;;;5134758;28;20047;-44
2020/12/22 05:22:59;;;;;;;2.05;1.85;;;10.90;78.70;;;;;;5143783;28;20038;-44
2020/12/22 05:25:26;;;;;;;2.92;1.90;;;10.90;78.70;;;;;;5143471;28;20094;-44
2020/12/22 05:27:53;;;;;;;2.08;1.88;;;10.90;78.70;;;;;;5108236;28;20034;-44
2020/12/22 05:30:20;;;;;;;2.35;2.10;;;10.90;78.60;;;;;;5143636;28;20027;-44
2020/12/22 05:32:50;;;;;;;1.63;1.52;;;10.90;78.80;;;;;;5135429;28;20027;-44
2020/12/22 05:35:17;;;;;;;2.08;1.88;;;10.90;78.70;;;;;;5087467;28;20024;-44
2020/12/22 05:37:46;;;;;;;2.42;1.98;;;10.90;78.80;;;;;;5136798;28;20086;-44
2020/12/22 05:40:12;;;;;;;1.92;1.73;;;10.90;78.70;;;;;;5143669;28;20116;-43
2020/12/22 05:42:38;;;;;;;2.28;1.90;;;10.90;78.80;;;;;;5143580;28;20023;-43
2020/12/22 05:45:05;;;;;;;3.35;1.70;;;10.90;78.70;;;;;;5143424;28;20075;-45
2020/12/22 05:47:32;;;;;;;2.20;1.70;;;10.90;78.80;;;;;;5143404;28;20061;-44
2020/12/22 05:49:59;;;;;;;2.13;1.80;;;10.80;78.80;;;;;;5132905;28;20027;-45
2020/12/22 05:52:26;;;;;;;2.20;1.95;;;10.80;78.70;;;;;;5108507;28;20051;-44
2020/12/22 05:54:53;;;;;;;;;;;10.80;78.70;;;;;;5127151;28;20095;-44
2020/12/22 05:57:26;;;;;;;2.47;1.98;;;10.80;78.80;;;;;;5126554;28;19915;-44
2020/12/22 05:59:52;;;;;;;1.90;1.70;;;10.80;78.70;;;;;;5126644;28;20027;-44
2020/12/22 06:02:28;;;;;;;2.33;2.13;;;10.80;78.70;;;;;;5122259;28;20477;-44
2020/12/22 06:04:56;;;;;;;1.65;1.55;;;10.80;78.80;;;;;;5106043;28;20024;-44
2020/12/22 06:07:22;;;;;;;2.00;1.80;;;10.70;78.70;;;;;;5121127;28;20028;-44
2020/12/22 06:09:49;;;;;;;2.35;1.95;;;10.70;78.80;;;;;;5123092;28;20055;-44
2020/12/22 06:12:15;;;;;;;2.17;1.75;;;10.70;78.80;;;;;;5126598;28;20048;-44
2020/12/22 06:14:46;;;;;;;2.22;1.98;;;10.70;78.80;;;;;;5108007;28;20027;-43
2020/12/22 06:17:12;;;;;;;2.10;1.90;;;10.70;78.80;;;;;;5126295;28;20028;-44
2020/12/22 06:19:39;;;;;;;3.70;1.92;;;10.70;78.80;;;;;;5107927;28;20028;-44
2020/12/22 06:22:09;;;;;;;2.10;1.90;;;10.70;78.80;;;;;;5126131;28;20027;-44
2020/12/22 06:24:35;;;;;;;2.97;1.95;;;10.70;78.80;;;;;;5126397;28;20654;-44
2020/12/22 06:27:09;;;;;;;2.00;1.80;;;10.70;78.80;;;;;;5087642;28;20397;-45
2020/12/22 06:29:35;;;;;;;2.33;1.88;;;10.70;78.80;;;;;;5105584;28;20092;-44
2020/12/22 06:32:17;;;;;;;2.22;1.90;;;10.70;78.80;;;;;;5109959;27;20381;-44
2020/12/22 06:34:45;;;;;;;2.55;1.85;;;10.70;78.80;;;;;;5146563;27;20031;-43
2020/12/22 06:37:12;;;;;;;2.47;1.98;;;10.60;78.70;;;;;;5132848;27;20027;-43
2020/12/22 06:39:45;;;;;;;1.98;1.77;;;10.60;78.70;;;;;;5107504;28;20054;-43
2020/12/22 06:42:30;;;;;;;2.22;1.70;;;10.60;78.80;;;;;;5125959;28;20023;-44
2020/12/22 06:45:15;;;;;;;2.38;1.90;;;10.60;79.50;;;;;;5125614;28;20077;-44
2020/12/22 06:47:41;;;;;;;2.33;1.83;;;10.60;78.80;;;;;;5125510;28;20031;-43
2020/12/22 06:50:07;;;;;;;2.42;2.00;;;10.60;78.90;;;;;;5124145;28;20023;-44
2020/12/22 06:52:37;;;;;;;2.53;1.73;;;10.60;78.90;;;;;;5125564;28;20087;-44
2020/12/22 06:55:12;;;;;;;2.05;1.83;;;10.50;78.80;;;;;;5125589;28;20034;-44
2020/12/22 06:57:50;;;;;;;2.65;2.10;;;10.60;78.80;;;;;;5125363;28;20052;-43
2020/12/22 07:00:23;;;;;;;2.25;2.00;;;10.50;78.80;;;;;;5125345;28;20032;-44
2020/12/22 07:02:49;;;;;;;1.88;1.67;;;10.50;78.80;;;;;;5125209;28;20095;-43
2020/12/22 07:05:38;;;;;;;2.03;1.77;;;10.50;78.80;;;;;;5108444;27;20392;-43
2020/12/22 07:08:04;;;;;;;2.70;1.70;;;10.50;78.80;;;;;;5104605;28;20027;-44
2020/12/22 07:10:31;;;;;;;2.00;1.70;;;10.50;78.80;;;;;;5104918;28;20111;-45
2020/12/22 07:12:58;;;;;;;2.30;1.92;;;10.50;78.80;;;;;;5104865;28;20036;-44
2020/12/22 07:15:37;;;;;;;2.15;1.95;;;10.50;78.90;;;;;;5104678;28;20020;-44
2020/12/22 07:18:04;;;;;;;2.17;1.98;;;10.50;78.90;;;;;;5104555;28;20028;-44
2020/12/22 07:20:32;;;;;;;2.00;1.70;;;10.50;78.90;;;;;;5135967;27;20467;-44
2020/12/22 07:22:58;;;;;;;2.40;2.13;;;10.40;78.80;;;;;;5127115;27;20023;-44
2020/12/22 07:25:27;;;;;;;2.55;2.00;;;10.40;78.80;;;;;;5145599;27;20034;-44
2020/12/22 07:27:53;;;;;;;2.15;1.90;;;10.40;78.90;;;;;;5126736;27;20558;-44
2020/12/22 07:30:19;;;;;;;1.95;1.75;;;10.40;78.90;;;;;;5145407;27;20027;-44
2020/12/22 07:32:45;;;;;;;2.13;1.88;;;10.40;78.80;;;;;;5137044;27;20039;-44
2020/12/22 07:35:12;;;;;;;2.40;1.90;;;10.40;78.90;;;;;;5105447;28;20035;-44
2020/12/22 07:37:39;;;;;;;2.28;1.90;;;10.40;79.00;;;;;;5121079;28;20027;-44
2020/12/22 07:40:09;;;;;;;2.05;1.80;;;10.40;78.90;;;;;;5106601;28;20063;-44
2020/12/22 07:42:35;;;;;;;1.75;1.65;;;10.40;78.90;;;;;;5124577;28;20027;-44
2020/12/22 07:45:07;;;;;;;2.78;2.20;;;10.30;78.80;;;;;;5124313;28;20019;-44
2020/12/22 07:47:34;;;;;;;2.10;1.83;;;10.30;78.90;;;;;;5122893;28;20118;-44
2020/12/22 07:50:13;;;;;;;1.95;1.65;;;10.30;78.90;;;;;;5136104;27;20023;-43
2020/12/22 07:52:40;;;;;;;2.50;1.95;;;10.30;78.90;;;;;;5145026;27;20090;-43
2020/12/22 07:55:07;;;;;;;2.80;2.10;;;10.30;78.90;;;;;;5145030;27;20038;-44
2020/12/22 07:57:36;;;;;;;2.47;2.15;;;10.30;78.90;;;;;;5126151;27;20023;-44
2020/12/22 08:00:11;;;;;;;2.10;1.90;;;10.30;78.90;;;;;;5144987;27;20011;-42
2020/12/22 08:02:39;;;;;;;2.08;1.77;;;10.30;79.00;;;;;;5137594;27;20023;-43
2020/12/22 08:05:08;;;;;;;2.03;1.58;;;10.30;78.90;;;;;;5124189;28;20023;-44
2020/12/22 08:07:35;;;;;;;2.15;1.77;;;10.30;79.00;;;;;;5107483;28;20027;-43
2020/12/22 08:10:23;;;;;;;2.55;2.13;;;10.20;78.90;;;;;;5103791;28;20131;-44
2020/12/22 08:12:53;;;;;;;2.10;1.90;;;10.30;79.00;;;;;;5103015;28;20095;-44
2020/12/22 08:15:19;;;;;;;2.38;1.90;;;10.20;79.00;;;;;;5085269;28;20028;-43
2020/12/22 08:17:46;;;;;;;2.38;2.15;;;10.20;78.90;;;;;;5085047;28;20054;-44
2020/12/22 08:20:13;;;;;;;2.60;2.05;;;10.20;78.90;;;;;;5098251;28;20043;-44
2020/12/22 08:22:41;;;;;;;2.20;2.00;;;10.20;78.90;;;;;;5089034;28;20061;-43
2020/12/22 08:25:07;;;;;;;2.30;1.98;;;10.20;78.90;;;;;;5089014;28;20058;-44
2020/12/22 08:27:33;;;;;;;4.07;2.10;;;10.20;78.90;;;;;;5102062;28;20032;-44
2020/12/22 08:29:59;;;;;;;2.08;1.88;;;10.20;78.90;;;;;;5103366;28;20020;-44
2020/12/22 08:32:26;;;;;;;2.25;1.88;;;10.10;78.90;;;;;;5108585;28;20032;-45
2020/12/22 08:34:53;;;;;;;2.47;2.13;;;10.10;79.00;;;;;;5105761;28;20027;-43
2020/12/22 08:37:28;;;;;;;1.98;1.88;;;10.10;78.90;;;;;;5090815;28;20044;-43
2020/12/22 08:39:54;;;;;;;2.42;1.90;;;10.10;79.00;;;;;;5102838;28;20058;-44
2020/12/22 08:42:21;;;;;;;1.95;1.48;;;10.10;78.90;;;;;;5085142;28;20035;-43
2020/12/22 08:44:51;;;;;;;2.00;1.70;;;10.10;79.20;;;;;;5108644;28;20073;-44
2020/12/22 08:47:18;;;;;;;2.35;1.90;;;10.10;79.00;;;;;;5123716;28;20039;-45
2020/12/22 08:49:44;;;;;;;3.22;2.28;;;10.10;79.00;;;;;;5132552;27;20023;-44
2020/12/22 08:52:17;;;;;;;2.00;1.80;;;10.10;79.00;;;;;;5143796;27;20510;-43
2020/12/22 08:54:47;;;;;;;3.00;2.20;;;10.10;79.00;;;;;;5144059;27;20019;-43
2020/12/22 08:57:18;;;;;;;2.97;2.03;;;10.10;79.00;;;;;;5144086;27;20044;-44
2020/12/22 08:59:47;;;;;;;2.60;2.10;;;10.10;79.10;;;;;;5125241;27;20380;-43
2020/12/22 09:02:32;;;;;;;2.28;2.03;;;10.00;79.00;;;;;;5123256;28;20111;-44
2020/12/22 09:05:08;;;;;;;2.25;1.90;;;10.00;79.00;;;;;;5105427;28;20020;-44
2020/12/22 09:07:35;;;;;;;2.30;1.90;;;10.00;79.00;;;;;;5088251;28;20032;-43
2020/12/22 09:10:07;;;;;;;2.05;1.85;;;10.00;78.90;;;;;;5102590;28;20024;-43
2020/12/22 09:12:34;;;;;;;2.20;2.00;;;10.00;79.00;;;;;;5102884;28;20028;-44
2020/12/22 09:15:00;;;;;;;2.15;1.80;;;10.00;79.10;;;;;;5102861;28;20058;-43
2020/12/22 09:17:30;;;;;;;2.43;2.13;;;10.00;79.00;;;;;;5103076;28;20088;-43
2020/12/22 09:19:56;;;;;;;2.08;1.88;;;10.00;79.00;;;;;;5095599;28;20054;-43
2020/12/22 09:22:24;;;;;;;2.47;2.00;;;9.90;79.00;;;;;;5123141;28;20028;-43
2020/12/22 09:24:57;;;;;;;1.80;1.63;;;9.90;79.00;;;;;;5125330;28;20030;-43
2020/12/22 09:27:33;;;;;;;1.98;1.77;;;9.90;79.00;;;;;;5127423;28;20027;-43
2020/12/22 09:30:00;;;;;;;2.42;1.90;;;9.90;79.00;;;;;;5126829;28;20020;-44
2020/12/22 09:32:26;;;;;;;3.10;1.83;;;9.90;79.10;;;;;;5132758;27;20031;-43
2020/12/22 09:34:52;;;;;;;2.63;1.80;;;9.90;79.10;;;;;;5147891;27;20027;-43
2020/12/22 09:37:20;;;;;;;2.38;2.17;;;9.90;79.10;;;;;;5133358;27;20067;-43
2020/12/22 09:39:46;;;;;;;2.13;1.92;;;9.90;79.00;;;;;;5108826;28;20135;-43
2020/12/22 09:42:12;;;;;;;2.85;1.90;;;9.90;79.10;;;;;;5121002;28;20023;-43
2020/12/22 09:44:38;;;;;;;2.50;2.10;;;9.90;79.10;;;;;;5109571;28;20019;-43
2020/12/22 09:47:05;;;;;;;2.10;1.75;;;9.90;79.10;;;;;;5126855;28;20030;-43
2020/12/22 09:49:34;;;;;;;2.85;1.80;;;9.80;79.10;;;;;;5115635;27;20053;-43
2020/12/22 09:52:00;;;;;;;1.98;1.67;;;9.80;79.10;;;;;;5147388;27;20036;-44
2020/12/22 09:54:26;;;;;;;2.10;1.90;;;9.80;79.10;;;;;;5147405;27;20035;-43
2020/12/22 09:56:52;;;;;;;2.38;2.03;;;9.80;79.20;;;;;;5147471;27;20011;-44
2020/12/22 09:59:18;;;;;;;2.30;1.90;;;9.80;79.10;;;;;;5128500;27;20027;-43
2020/12/22 10:01:45;;;;;;;2.67;2.10;;;9.80;79.20;;;;;;5147276;27;20027;-45
2020/12/22 10:04:12;;;;;;;2.25;2.05;;;9.80;79.10;;;;;;5126629;28;20028;-43
2020/12/22 10:06:38;;;;;;;2.28;2.08;;;9.80;79.20;;;;;;5118121;28;20036;-43
2020/12/22 10:09:04;;;;;;;2.00;1.80;;;9.70;79.10;;;;;;5087842;28;20024;-43
2020/12/22 10:11:32;;;;;;;2.08;1.85;;;9.70;79.20;;;;;;5105956;28;20060;-43
2020/12/22 10:13:58;;;;;;;2.10;1.90;;;9.70;79.20;;;;;;5088142;28;20032;-43
2020/12/22 10:16:24;;;;;;;2.47;2.13;;;9.70;79.20;;;;;;5105751;28;20092;-43
2020/12/22 10:18:50;;;;;;;2.22;1.80;;;9.70;79.20;;;;;;5108973;27;20028;-43
2020/12/22 10:21:18;;;;;;;2.13;1.65;;;9.70;79.20;;;;;;5124503;28;20077;-44
2020/12/22 10:23:45;;;;;;;2.13;1.60;;;9.70;79.20;;;;;;5126439;28;20039;-43
2020/12/22 10:26:13;;;;;;;2.42;1.92;;;9.70;79.20;;;;;;5126642;28;20027;-43
2020/12/22 10:28:39;;;;;;;;;;;9.70;79.10;;;;;;5123401;28;20020;-43
2020/12/22 10:31:06;;;;;;;2.00;1.70;;;9.70;79.20;;;;;;5125913;28;19915;-43
2020/12/22 10:33:32;;;;;;;2.30;1.77;;;9.70;79.30;;;;;;5111282;28;20032;-43
2020/12/22 10:35:58;;;;;;;2.15;1.95;;;9.60;79.20;;;;;;5104808;28;20039;-43
2020/12/22 10:38:24;;;;;;;3.20;2.60;;;9.60;79.30;;;;;;5105492;28;20035;-43
2020/12/22 10:40:51;;;;;;;2.40;2.17;;;9.60;79.20;;;;;;5104936;28;20031;-43
2020/12/22 10:43:17;;;;;;;2.42;2.10;;;9.60;79.30;;;;;;5105440;28;20504;-43
2020/12/22 10:45:43;;;;;;;2.67;1.80;;;9.60;79.20;;;;;;5105415;28;20024;-43
2020/12/22 10:48:09;;;;;;;2.00;1.50;;;9.60;79.20;;;;;;5105404;28;20087;-43
2020/12/22 10:50:36;;;;;;;3.17;2.05;;;9.60;79.20;;;;;;5121452;28;20020;-43
2020/12/22 10:53:08;;;;;;;2.30;1.87;;;9.50;79.20;;;;;;5125147;28;20028;-43
2020/12/22 10:55:35;;;;;;;1.90;1.70;;;9.50;79.30;;;;;;5106971;28;20024;-43
2020/12/22 10:58:02;;;;;;;2.30;2.05;;;9.50;79.30;;;;;;5103820;28;20044;-43
2020/12/22 11:00:28;;;;;;;3.00;2.13;;;9.50;79.20;;;;;;5104642;28;20031;-43
2020/12/22 11:02:56;;;;;;;2.10;1.90;;;9.50;79.30;;;;;;5105036;28;20043;-43
2020/12/22 11:08:08;;;;;;;2.05;1.85;;;9.50;79.30;;;;;;5084589;28;20082;-43
2020/12/22 11:10:34;;;;;;;2.30;1.70;;;9.40;79.20;;;;;;5084421;28;20025;-43
2020/12/22 11:13:01;;;;;;;2.75;2.10;;;9.40;79.20;;;;;;5099904;28;20044;-43
2020/12/22 11:15:27;;;;;;;2.22;2.03;;;9.50;79.40;;;;;;5084484;28;20025;-43
2020/12/22 11:17:53;;;;;;;2.47;2.00;;;9.50;79.30;;;;;;5084634;28;20029;-43
2020/12/22 11:20:19;;;;;;;1.98;1.45;;;9.40;79.30;;;;;;5122273;27;20068;-43
2020/12/22 11:22:48;;;;;;;2.63;2.00;;;9.40;79.30;;;;;;5145638;27;20053;-43
2020/12/22 11:25:17;;;;;;;2.25;1.90;;;9.40;79.40;;;;;;5145727;27;20031;-44
2020/12/22 11:27:44;;;;;;;2.00;1.58;;;9.40;79.40;;;;;;5145599;27;20072;-43
2020/12/22 11:30:10;;;;;;;2.10;1.87;;;9.40;79.30;;;;;;5145620;27;20038;-43
2020/12/22 11:32:36;;;;;;;1.90;1.63;;;9.40;79.40;;;;;;5138104;27;20571;-43
2020/12/22 11:35:04;;;;;;;2.10;1.83;;;9.40;79.40;;;;;;5124545;28;20045;-44
2020/12/22 11:37:30;;;;;;;2.45;1.92;;;9.30;79.30;;;;;;5108606;28;20028;-43
2020/12/22 11:39:56;;;;;;;2.58;1.77;;;9.30;79.30;;;;;;5104438;28;20028;-43
2020/12/22 11:42:22;;;;;;;1.95;1.70;;;9.30;79.40;;;;;;5104143;28;20020;-43
2020/12/22 11:44:49;;;;;;;2.05;1.92;;;9.30;79.40;;;;;;5103913;28;20039;-43
2020/12/22 11:47:15;;;;;;;2.05;1.80;;;9.30;79.40;;;;;;5116942;27;20027;-43
2020/12/22 11:49:42;;;;;;;2.25;2.05;;;9.30;79.40;;;;;;5136149;27;20717;-43
2020/12/22 11:52:08;;;;;;;1.75;1.65;;;9.30;79.40;;;;;;5124301;28;20027;-43
2020/12/22 11:54:35;;;;;;;2.45;1.85;;;9.30;79.40;;;;;;5124263;28;20058;-43
2020/12/22 11:57:04;;;;;;;3.05;1.90;;;9.20;79.40;;;;;;5124553;28;20722;-43
2020/12/22 11:59:32;;;;;;;2.10;1.90;;;9.20;79.40;;;;;;5124364;28;20035;-43
2020/12/22 12:02:03;;;;;;;1.70;1.52;;;9.30;79.40;;;;;;5125836;27;20023;-43
2020/12/22 12:04:29;;;;;;;2.17;1.80;;;9.20;79.40;;;;;;5144520;27;20027;-43
2020/12/22 12:06:55;;;;;;;2.00;1.77;;;9.20;80.20;;;;;;5133704;27;20016;-43
2020/12/22 12:09:21;;;;;;;1.80;1.70;;;9.20;79.40;;;;;;5124071;28;20079;-43
2020/12/22 12:11:51;;;;;;;1.98;1.70;;;9.20;79.40;;;;;;5124167;28;20132;-44
2020/12/22 12:14:18;;;;;;;2.20;1.90;;;9.20;79.40;;;;;;5123599;28;20143;-43
2020/12/22 12:16:51;;;;;;;2.00;1.80;;;9.20;79.40;;;;;;5124040;28;20028;-43
2020/12/22 12:19:19;;;;;;;1.63;1.52;;;9.20;79.80;;;;;;5129176;27;20034;-43
2020/12/22 12:21:45;;;;;;;1.95;1.70;;;9.20;79.50;;;;;;5144372;27;20347;-43
2020/12/22 12:24:11;;;;;;;2.17;1.75;;;9.20;79.40;;;;;;5144372;27;20043;-43
2020/12/22 12:26:38;;;;;;;2.00;1.73;;;9.10;79.50;;;;;;5141008;27;20020;-43
2020/12/22 12:29:04;;;;;;;1.85;1.60;;;9.10;79.50;;;;;;5144579;27;20037;-43
2020/12/22 12:31:31;;;;;;;2.08;1.98;;;9.10;79.50;;;;;;5144328;27;20027;-43
2020/12/22 12:34:00;;;;;;;1.90;1.63;;;9.10;79.50;;;;;;5125808;27;20047;-43
2020/12/22 12:36:27;;;;;;;1.70;1.60;;;9.10;79.50;;;;;;5098190;28;20078;-43
2020/12/22 12:38:53;;;;;;;1.67;1.58;;;9.10;79.50;;;;;;5103357;28;20027;-42
2020/12/22 12:41:19;;;;;;;2.10;1.60;;;9.10;79.50;;;;;;5097175;28;20012;-43
2020/12/22 12:43:45;;;;;;;1.58;1.48;;;9.10;79.50;;;;;;5123499;28;20038;-43
2020/12/22 12:46:11;;;;;;;1.67;1.42;;;9.00;80.10;;;;;;5125780;27;20038;-43
2020/12/22 12:48:38;;;;;;;2.15;1.77;;;9.00;79.40;;;;;;5123622;28;20091;-43
2020/12/22 12:51:05;;;;;;;2.03;1.75;;;9.00;79.50;;;;;;5143958;27;20033;-45
2020/12/22 12:53:32;;;;;;;2.25;1.73;;;9.00;79.50;;;;;;5143768;27;20050;-43